Terminal Aerodrome Forecast
Issued by NWS Newport/Morehead City, NC

Home | Current Version | Previous Version | Text Only | Print | Product List | Glossary On
Versions: 1 2 3 4 5 6 7 8 9 10 11 12 13 14 15 16
000
FTUS42 KMHX 251728
TAFEWN
TAF
KEWN 251728Z 2518/2618 03015KT P6SM BKN025 BKN050
     FM260000 03010KT P6SM OVC015
     FM260300 02010KT P6SM OVC007
     FM261400 01015G25KT P6SM BKN007=

USA.gov is the U.S. government's official web portal to all federal, state and local government web resources and services.